sensor_id;sensor_type;location;lat;lon;timestamp;temperature;humidity
12254;DHT22;6189;52.526;13.390;2022-09-03T00:00:07;16.90;84.80
12254;DHT22;6189;52.526;13.390;2022-09-03T00:02:58;16.90;85.00
12254;DHT22;6189;52.526;13.390;2022-09-03T00:05:48;16.90;85.40
12254;DHT22;6189;52.526;13.390;2022-09-03T00:08:38;17.00;86.30
12254;DHT22;6189;52.526;13.390;2022-09-03T00:11:29;17.00;85.60
12254;DHT22;6189;52.526;13.390;2022-09-03T00:14:20;16.90;85.30
12254;DHT22;6189;52.526;13.390;2022-09-03T00:17:10;16.90;86.80
12254;DHT22;6189;52.526;13.390;2022-09-03T00:20:00;16.90;86.40
12254;DHT22;6189;52.526;13.390;2022-09-03T00:22:50;17.00;87.20
12254;DHT22;6189;52.526;13.390;2022-09-03T00:25:39;17.00;86.40
12254;DHT22;6189;52.526;13.390;2022-09-03T00:28:33;17.10;86.20
12254;DHT22;6189;52.526;13.390;2022-09-03T00:31:24;17.00;86.70
12254;DHT22;6189;52.526;13.390;2022-09-03T00:34:15;17.10;87.10
12254;DHT22;6189;52.526;13.390;2022-09-03T00:37:06;17.10;86.50
12254;DHT22;6189;52.526;13.390;2022-09-03T00:39:53;17.10;86.50
12254;DHT22;6189;52.526;13.390;2022-09-03T00:42:45;17.10;86.90
12254;DHT22;6189;52.526;13.390;2022-09-03T00:45:37;17.10;86.70
12254;DHT22;6189;52.526;13.390;2022-09-03T00:48:28;17.00;86.80
12254;DHT22;6189;52.526;13.390;2022-09-03T00:51:21;17.10;86.70
12254;DHT22;6189;52.526;13.390;2022-09-03T00:54:20;17.10;86.90
12254;DHT22;6189;52.526;13.390;2022-09-03T00:57:22;17.00;87.20
12254;DHT22;6189;52.526;13.390;2022-09-03T01:00:11;16.90;87.40
12254;DHT22;6189;52.526;13.390;2022-09-03T01:03:04;16.90;87.60
12254;DHT22;6189;52.526;13.390;2022-09-03T01:06:09;16.90;88.30
12254;DHT22;6189;52.526;13.390;2022-09-03T01:09:11;17.00;88.00
12254;DHT22;6189;52.526;13.390;2022-09-03T01:12:10;17.00;87.70
12254;DHT22;6189;52.526;13.390;2022-09-03T01:15:05;17.00;87.50
12254;DHT22;6189;52.526;13.390;2022-09-03T01:18:01;16.90;87.90
12254;DHT22;6189;52.526;13.390;2022-09-03T01:24:23;16.70;88.80
12254;DHT22;6189;52.526;13.390;2022-09-03T01:27:21;16.60;88.40
12254;DHT22;6189;52.526;13.390;2022-09-03T01:30:18;16.60;89.40
12254;DHT22;6189;52.526;13.390;2022-09-03T01:33:09;16.60;88.50
12254;DHT22;6189;52.526;13.390;2022-09-03T01:36:01;16.50;89.40
12254;DHT22;6189;52.526;13.390;2022-09-03T01:38:52;16.40;89.40
12254;DHT22;6189;52.526;13.390;2022-09-03T01:41:49;16.40;89.90
12254;DHT22;6189;52.526;13.390;2022-09-03T01:45:18;16.40;90.10
12254;DHT22;6189;52.526;13.390;2022-09-03T01:48:20;16.40;90.20
12254;DHT22;6189;52.526;13.390;2022-09-03T01:51:14;16.30;90.30
12254;DHT22;6189;52.526;13.390;2022-09-03T01:57:29;16.40;90.30
12254;DHT22;6189;52.526;13.390;2022-09-03T02:00:22;16.40;90.70
12254;DHT22;6189;52.526;13.390;2022-09-03T02:03:10;16.40;90.50
12254;DHT22;6189;52.526;13.390;2022-09-03T02:05:56;16.40;90.20
12254;DHT22;6189;52.526;13.390;2022-09-03T02:08:42;16.40;90.30
12254;DHT22;6189;52.526;13.390;2022-09-03T02:11:27;16.30;90.40
12254;DHT22;6189;52.526;13.390;2022-09-03T02:14:13;16.20;90.60
12254;DHT22;6189;52.526;13.390;2022-09-03T02:17:01;16.30;90.80
12254;DHT22;6189;52.526;13.390;2022-09-03T02:19:47;16.30;90.40
12254;DHT22;6189;52.526;13.390;2022-09-03T02:22:33;16.20;90.70
12254;DHT22;6189;52.526;13.390;2022-09-03T02:25:22;16.20;91.20
12254;DHT22;6189;52.526;13.390;2022-09-03T02:28:09;16.10;91.00
12254;DHT22;6189;52.526;13.390;2022-09-03T02:30:55;16.20;91.30
12254;DHT22;6189;52.526;13.390;2022-09-03T02:33:44;16.10;91.10
12254;DHT22;6189;52.526;13.390;2022-09-03T02:36:32;16.10;91.30
12254;DHT22;6189;52.526;13.390;2022-09-03T02:39:18;16.00;91.00
12254;DHT22;6189;52.526;13.390;2022-09-03T02:42:03;16.00;91.00
12254;DHT22;6189;52.526;13.390;2022-09-03T02:44:52;15.90;91.30
12254;DHT22;6189;52.526;13.390;2022-09-03T02:47:40;15.90;91.50
12254;DHT22;6189;52.526;13.390;2022-09-03T02:50:29;16.00;91.70
12254;DHT22;6189;52.526;13.390;2022-09-03T02:53:15;15.90;91.50
12254;DHT22;6189;52.526;13.390;2022-09-03T02:56:01;15.90;91.60
12254;DHT22;6189;52.526;13.390;2022-09-03T02:58:47;16.00;91.90
12254;DHT22;6189;52.526;13.390;2022-09-03T03:01:33;16.10;91.60
12254;DHT22;6189;52.526;13.390;2022-09-03T03:04:19;16.20;91.70
12254;DHT22;6189;52.526;13.390;2022-09-03T03:07:06;16.20;91.40
12254;DHT22;6189;52.526;13.390;2022-09-03T03:09:52;16.20;91.60
12254;DHT22;6189;52.526;13.390;2022-09-03T03:12:37;16.20;91.50
12254;DHT22;6189;52.526;13.390;2022-09-03T03:15:23;16.10;91.50
12254;DHT22;6189;52.526;13.390;2022-09-03T03:18:08;16.10;91.40
12254;DHT22;6189;52.526;13.390;2022-09-03T03:20:55;16.20;91.50
12254;DHT22;6189;52.526;13.390;2022-09-03T03:23:42;16.30;91.40
12254;DHT22;6189;52.526;13.390;2022-09-03T03:26:28;16.20;91.40
12254;DHT22;6189;52.526;13.390;2022-09-03T03:29:15;16.20;91.20
12254;DHT22;6189;52.526;13.390;2022-09-03T03:32:01;16.20;91.40
12254;DHT22;6189;52.526;13.390;2022-09-03T03:34:47;16.20;91.70
12254;DHT22;6189;52.526;13.390;2022-09-03T03:37:33;16.20;91.40
12254;DHT22;6189;52.526;13.390;2022-09-03T03:40:20;16.30;91.30
12254;DHT22;6189;52.526;13.390;2022-09-03T03:43:06;16.30;91.10
12254;DHT22;6189;52.526;13.390;2022-09-03T03:45:56;16.30;91.50
12254;DHT22;6189;52.526;13.390;2022-09-03T03:48:41;16.30;91.00
12254;DHT22;6189;52.526;13.390;2022-09-03T03:51:27;16.20;91.30
12254;DHT22;6189;52.526;13.390;2022-09-03T03:54:13;16.30;91.30
12254;DHT22;6189;52.526;13.390;2022-09-03T03:57:00;16.40;91.30
12254;DHT22;6189;52.526;13.390;2022-09-03T03:59:46;16.40;91.10
12254;DHT22;6189;52.526;13.390;2022-09-03T04:02:32;16.50;91.20
12254;DHT22;6189;52.526;13.390;2022-09-03T04:05:18;16.50;91.10
12254;DHT22;6189;52.526;13.390;2022-09-03T04:08:04;16.40;91.00
12254;DHT22;6189;52.526;13.390;2022-09-03T04:10:50;16.50;91.40
12254;DHT22;6189;52.526;13.390;2022-09-03T04:13:38;16.40;91.20
12254;DHT22;6189;52.526;13.390;2022-09-03T04:16:25;16.30;91.20
12254;DHT22;6189;52.526;13.390;2022-09-03T04:19:11;16.30;91.30
12254;DHT22;6189;52.526;13.390;2022-09-03T04:21:57;16.30;91.50
12254;DHT22;6189;52.526;13.390;2022-09-03T04:24:42;16.10;91.80
12254;DHT22;6189;52.526;13.390;2022-09-03T04:27:28;16.20;91.80
12254;DHT22;6189;52.526;13.390;2022-09-03T04:30:15;16.20;91.80
12254;DHT22;6189;52.526;13.390;2022-09-03T04:33:01;16.30;91.70
12254;DHT22;6189;52.526;13.390;2022-09-03T04:35:46;16.20;91.80
12254;DHT22;6189;52.526;13.390;2022-09-03T04:38:32;16.30;91.80
12254;DHT22;6189;52.526;13.390;2022-09-03T04:41:19;16.30;92.00
12254;DHT22;6189;52.526;13.390;2022-09-03T04:44:05;16.30;92.10
12254;DHT22;6189;52.526;13.390;2022-09-03T04:46:52;16.30;92.10
12254;DHT22;6189;52.526;13.390;2022-09-03T04:49:37;16.30;92.30
12254;DHT22;6189;52.526;13.390;2022-09-03T04:52:23;16.30;92.10
12254;DHT22;6189;52.526;13.390;2022-09-03T04:55:14;16.30;92.30
12254;DHT22;6189;52.526;13.390;2022-09-03T04:57:59;16.30;92.50
12254;DHT22;6189;52.526;13.390;2022-09-03T05:00:45;16.30;92.60
12254;DHT22;6189;52.526;13.390;2022-09-03T05:03:32;16.10;92.90
12254;DHT22;6189;52.526;13.390;2022-09-03T05:06:17;16.10;93.20
12254;DHT22;6189;52.526;13.390;2022-09-03T05:09:04;16.10;93.20
12254;DHT22;6189;52.526;13.390;2022-09-03T05:11:50;16.10;93.40
12254;DHT22;6189;52.526;13.390;2022-09-03T05:14:35;16.10;93.40
12254;DHT22;6189;52.526;13.390;2022-09-03T05:17:21;16.10;93.70
12254;DHT22;6189;52.526;13.390;2022-09-03T05:20:08;16.10;93.80
12254;DHT22;6189;52.526;13.390;2022-09-03T05:22:54;16.10;93.90
12254;DHT22;6189;52.526;13.390;2022-09-03T05:25:40;16.10;94.20
12254;DHT22;6189;52.526;13.390;2022-09-03T05:28:25;16.20;94.40
12254;DHT22;6189;52.526;13.390;2022-09-03T05:31:13;16.10;94.50
12254;DHT22;6189;52.526;13.390;2022-09-03T05:34:01;16.00;94.60
12254;DHT22;6189;52.526;13.390;2022-09-03T05:36:48;16.20;94.60
12254;DHT22;6189;52.526;13.390;2022-09-03T05:39:34;16.20;94.80
12254;DHT22;6189;52.526;13.390;2022-09-03T05:42:19;16.20;94.90
12254;DHT22;6189;52.526;13.390;2022-09-03T05:45:07;16.20;95.10
12254;DHT22;6189;52.526;13.390;2022-09-03T05:47:53;16.00;95.60
12254;DHT22;6189;52.526;13.390;2022-09-03T05:50:39;16.00;96.00
12254;DHT22;6189;52.526;13.390;2022-09-03T05:53:26;16.00;96.00
12254;DHT22;6189;52.526;13.390;2022-09-03T05:56:14;16.00;96.70
12254;DHT22;6189;52.526;13.390;2022-09-03T05:59:04;16.00;96.60
12254;DHT22;6189;52.526;13.390;2022-09-03T06:01:50;16.00;96.60
12254;DHT22;6189;52.526;13.390;2022-09-03T06:04:36;15.70;97.00
12254;DHT22;6189;52.526;13.390;2022-09-03T06:07:21;15.70;97.50
12254;DHT22;6189;52.526;13.390;2022-09-03T06:10:09;15.70;97.70
12254;DHT22;6189;52.526;13.390;2022-09-03T06:12:56;15.70;98.00
12254;DHT22;6189;52.526;13.390;2022-09-03T06:15:46;15.70;98.20
12254;DHT22;6189;52.526;13.390;2022-09-03T06:18:32;15.60;98.30
12254;DHT22;6189;52.526;13.390;2022-09-03T06:21:17;15.70;98.70
12254;DHT22;6189;52.526;13.390;2022-09-03T06:24:03;15.70;98.90
12254;DHT22;6189;52.526;13.390;2022-09-03T06:26:50;15.80;98.60
12254;DHT22;6189;52.526;13.390;2022-09-03T06:29:36;15.80;98.60
12254;DHT22;6189;52.526;13.390;2022-09-03T06:32:22;15.70;98.90
12254;DHT22;6189;52.526;13.390;2022-09-03T06:35:08;15.70;99.10
12254;DHT22;6189;52.526;13.390;2022-09-03T06:37:53;15.70;99.30
12254;DHT22;6189;52.526;13.390;2022-09-03T06:40:39;15.70;99.40
12254;DHT22;6189;52.526;13.390;2022-09-03T06:43:25;15.80;99.70
12254;DHT22;6189;52.526;13.390;2022-09-03T06:46:13;15.90;99.70
12254;DHT22;6189;52.526;13.390;2022-09-03T06:48:58;16.10;99.60
12254;DHT22;6189;52.526;13.390;2022-09-03T06:51:44;16.20;99.00
12254;DHT22;6189;52.526;13.390;2022-09-03T06:54:29;16.20;99.20
12254;DHT22;6189;52.526;13.390;2022-09-03T06:57:14;16.40;99.10
12254;DHT22;6189;52.526;13.390;2022-09-03T07:00:01;16.40;98.90
12254;DHT22;6189;52.526;13.390;2022-09-03T07:02:46;16.50;98.70
12254;DHT22;6189;52.526;13.390;2022-09-03T07:05:32;16.60;98.60
12254;DHT22;6189;52.526;13.390;2022-09-03T07:08:18;16.70;98.40
12254;DHT22;6189;52.526;13.390;2022-09-03T07:11:05;16.80;98.40
12254;DHT22;6189;52.526;13.390;2022-09-03T07:13:52;16.90;98.50
12254;DHT22;6189;52.526;13.390;2022-09-03T07:16:40;16.90;98.30
12254;DHT22;6189;52.526;13.390;2022-09-03T07:19:26;16.80;97.90
12254;DHT22;6189;52.526;13.390;2022-09-03T07:22:12;16.80;98.30
12254;DHT22;6189;52.526;13.390;2022-09-03T07:24:57;17.00;98.60
12254;DHT22;6189;52.526;13.390;2022-09-03T07:27:43;17.10;99.10
12254;DHT22;6189;52.526;13.390;2022-09-03T07:30:30;17.10;98.00
12254;DHT22;6189;52.526;13.390;2022-09-03T07:33:17;17.20;97.70
12254;DHT22;6189;52.526;13.390;2022-09-03T07:36:05;17.20;97.80
12254;DHT22;6189;52.526;13.390;2022-09-03T07:38:54;17.20;97.70
12254;DHT22;6189;52.526;13.390;2022-09-03T07:41:40;17.20;97.90
12254;DHT22;6189;52.526;13.390;2022-09-03T07:44:28;17.30;97.80
12254;DHT22;6189;52.526;13.390;2022-09-03T07:47:13;17.40;97.90
12254;DHT22;6189;52.526;13.390;2022-09-03T07:50:01;17.40;97.70
12254;DHT22;6189;52.526;13.390;2022-09-03T07:52:47;17.50;97.70
12254;DHT22;6189;52.526;13.390;2022-09-03T07:55:33;17.60;97.60
12254;DHT22;6189;52.526;13.390;2022-09-03T07:58:19;17.60;97.20
12254;DHT22;6189;52.526;13.390;2022-09-03T08:01:09;17.60;97.10
12254;DHT22;6189;52.526;13.390;2022-09-03T08:03:55;17.60;97.30
12254;DHT22;6189;52.526;13.390;2022-09-03T08:06:42;17.70;98.30
12254;DHT22;6189;52.526;13.390;2022-09-03T08:09:28;17.80;97.50
12254;DHT22;6189;52.526;13.390;2022-09-03T08:12:16;17.90;99.30
12254;DHT22;6189;52.526;13.390;2022-09-03T08:15:01;18.10;97.40
12254;DHT22;6189;52.526;13.390;2022-09-03T08:17:47;18.20;97.00
12254;DHT22;6189;52.526;13.390;2022-09-03T08:20:32;18.30;97.00
12254;DHT22;6189;52.526;13.390;2022-09-03T08:23:19;18.40;96.70
12254;DHT22;6189;52.526;13.390;2022-09-03T08:26:05;18.40;96.00
12254;DHT22;6189;52.526;13.390;2022-09-03T08:28:51;18.60;95.70
12254;DHT22;6189;52.526;13.390;2022-09-03T08:31:37;18.60;96.20
12254;DHT22;6189;52.526;13.390;2022-09-03T08:34:23;18.60;96.50
12254;DHT22;6189;52.526;13.390;2022-09-03T08:37:09;18.60;94.70
12254;DHT22;6189;52.526;13.390;2022-09-03T08:39:56;18.50;95.50
12254;DHT22;6189;52.526;13.390;2022-09-03T08:42:54;18.70;94.70
12254;DHT22;6189;52.526;13.390;2022-09-03T08:45:44;18.70;94.80
12254;DHT22;6189;52.526;13.390;2022-09-03T08:48:31;18.70;94.20
12254;DHT22;6189;52.526;13.390;2022-09-03T08:51:19;18.80;94.70
12254;DHT22;6189;52.526;13.390;2022-09-03T08:54:08;18.90;96.10
12254;DHT22;6189;52.526;13.390;2022-09-03T08:56:59;18.90;97.00
12254;DHT22;6189;52.526;13.390;2022-09-03T08:59:46;18.90;95.30
12254;DHT22;6189;52.526;13.390;2022-09-03T09:02:40;18.90;93.50
12254;DHT22;6189;52.526;13.390;2022-09-03T09:05:39;19.00;93.80
12254;DHT22;6189;52.526;13.390;2022-09-03T09:08:33;19.20;93.60
12254;DHT22;6189;52.526;13.390;2022-09-03T09:11:28;19.30;93.20
12254;DHT22;6189;52.526;13.390;2022-09-03T09:14:23;19.30;94.90
12254;DHT22;6189;52.526;13.390;2022-09-03T09:17:28;19.40;94.10
12254;DHT22;6189;52.526;13.390;2022-09-03T09:20:22;19.50;93.60
12254;DHT22;6189;52.526;13.390;2022-09-03T09:23:13;19.60;92.10
12254;DHT22;6189;52.526;13.390;2022-09-03T09:26:02;20.20;91.60
12254;DHT22;6189;52.526;13.390;2022-09-03T09:28:54;20.80;91.90
12254;DHT22;6189;52.526;13.390;2022-09-03T09:31:43;21.40;90.30
12254;DHT22;6189;52.526;13.390;2022-09-03T09:34:33;21.80;84.30
12254;DHT22;6189;52.526;13.390;2022-09-03T09:37:20;22.20;83.30
12254;DHT22;6189;52.526;13.390;2022-09-03T09:40:07;22.70;83.60
12254;DHT22;6189;52.526;13.390;2022-09-03T09:43:03;22.80;83.70
12254;DHT22;6189;52.526;13.390;2022-09-03T09:45:50;23.10;81.80
12254;DHT22;6189;52.526;13.390;2022-09-03T09:48:42;23.40;80.40
12254;DHT22;6189;52.526;13.390;2022-09-03T09:51:31;23.60;79.30
12254;DHT22;6189;52.526;13.390;2022-09-03T09:54:18;23.80;78.70
12254;DHT22;6189;52.526;13.390;2022-09-03T09:57:14;23.90;75.20
12254;DHT22;6189;52.526;13.390;2022-09-03T10:00:04;23.80;74.50
12254;DHT22;6189;52.526;13.390;2022-09-03T10:02:53;24.20;75.80
12254;DHT22;6189;52.526;13.390;2022-09-03T10:05:39;24.50;72.80
12254;DHT22;6189;52.526;13.390;2022-09-03T10:08:26;24.90;71.10
12254;DHT22;6189;52.526;13.390;2022-09-03T10:11:12;25.20;69.40
12254;DHT22;6189;52.526;13.390;2022-09-03T10:13:58;25.50;68.50
12254;DHT22;6189;52.526;13.390;2022-09-03T10:16:47;25.70;68.10
12254;DHT22;6189;52.526;13.390;2022-09-03T10:19:42;25.30;60.90
12254;DHT22;6189;52.526;13.390;2022-09-03T10:22:54;25.30;62.00
12254;DHT22;6189;52.526;13.390;2022-09-03T10:25:49;25.90;60.20
12254;DHT22;6189;52.526;13.390;2022-09-03T10:28:38;26.50;61.10
12254;DHT22;6189;52.526;13.390;2022-09-03T10:31:35;26.90;58.20
12254;DHT22;6189;52.526;13.390;2022-09-03T10:34:31;26.50;56.60
12254;DHT22;6189;52.526;13.390;2022-09-03T10:37:24;26.30;56.60
12254;DHT22;6189;52.526;13.390;2022-09-03T10:40:24;26.70;57.30
12254;DHT22;6189;52.526;13.390;2022-09-03T10:43:28;25.90;55.10
12254;DHT22;6189;52.526;13.390;2022-09-03T10:46:21;25.70;54.60
12254;DHT22;6189;52.526;13.390;2022-09-03T10:52:26;24.60;57.00
12254;DHT22;6189;52.526;13.390;2022-09-03T10:55:18;23.60;58.20
12254;DHT22;6189;52.526;13.390;2022-09-03T10:58:30;23.30;62.70
12254;DHT22;6189;52.526;13.390;2022-09-03T11:01:27;23.20;60.80
12254;DHT22;6189;52.526;13.390;2022-09-03T11:04:24;23.10;63.00
12254;DHT22;6189;52.526;13.390;2022-09-03T11:07:12;23.10;63.90
12254;DHT22;6189;52.526;13.390;2022-09-03T11:10:10;22.80;62.30
12254;DHT22;6189;52.526;13.390;2022-09-03T11:13:02;22.90;62.60
12254;DHT22;6189;52.526;13.390;2022-09-03T11:15:52;23.10;62.60
12254;DHT22;6189;52.526;13.390;2022-09-03T11:18:42;23.30;66.00
12254;DHT22;6189;52.526;13.390;2022-09-03T11:21:31;23.30;62.10
12254;DHT22;6189;52.526;13.390;2022-09-03T11:24:20;23.00;60.80
12254;DHT22;6189;52.526;13.390;2022-09-03T11:27:18;23.10;63.40
12254;DHT22;6189;52.526;13.390;2022-09-03T11:30:07;23.30;61.70
12254;DHT22;6189;52.526;13.390;2022-09-03T11:32:55;23.40;61.00
12254;DHT22;6189;52.526;13.390;2022-09-03T11:35:43;23.20;60.30
12254;DHT22;6189;52.526;13.390;2022-09-03T11:38:29;22.80;60.50
12254;DHT22;6189;52.526;13.390;2022-09-03T11:41:25;22.80;62.10
12254;DHT22;6189;52.526;13.390;2022-09-03T11:44:16;22.80;61.40
12254;DHT22;6189;52.526;13.390;2022-09-03T11:47:13;22.70;62.00
12254;DHT22;6189;52.526;13.390;2022-09-03T11:50:05;23.00;61.90
12254;DHT22;6189;52.526;13.390;2022-09-03T11:52:52;23.20;63.20
12254;DHT22;6189;52.526;13.390;2022-09-03T11:55:51;23.00;60.80
12254;DHT22;6189;52.526;13.390;2022-09-03T11:58:39;23.10;61.50
12254;DHT22;6189;52.526;13.390;2022-09-03T12:01:26;23.00;63.20
12254;DHT22;6189;52.526;13.390;2022-09-03T12:04:15;23.00;64.60
12254;DHT22;6189;52.526;13.390;2022-09-03T12:07:19;22.80;61.50
12254;DHT22;6189;52.526;13.390;2022-09-03T12:10:18;22.70;61.80
12254;DHT22;6189;52.526;13.390;2022-09-03T12:13:21;22.70;62.50
12254;DHT22;6189;52.526;13.390;2022-09-03T12:16:39;22.70;61.60
12254;DHT22;6189;52.526;13.390;2022-09-03T12:19:36;22.70;65.20
12254;DHT22;6189;52.526;13.390;2022-09-03T12:22:24;22.60;61.00
12254;DHT22;6189;52.526;13.390;2022-09-03T12:25:13;22.40;61.40
12254;DHT22;6189;52.526;13.390;2022-09-03T12:28:01;22.50;63.60
12254;DHT22;6189;52.526;13.390;2022-09-03T12:30:48;22.50;62.50
12254;DHT22;6189;52.526;13.390;2022-09-03T12:33:39;22.70;61.10
12254;DHT22;6189;52.526;13.390;2022-09-03T12:36:36;22.60;60.40
12254;DHT22;6189;52.526;13.390;2022-09-03T12:39:23;22.80;60.60
12254;DHT22;6189;52.526;13.390;2022-09-03T12:42:13;22.70;61.10
12254;DHT22;6189;52.526;13.390;2022-09-03T12:45:07;22.60;59.40
12254;DHT22;6189;52.526;13.390;2022-09-03T12:47:53;22.40;59.40
12254;DHT22;6189;52.526;13.390;2022-09-03T12:50:39;22.30;59.10
12254;DHT22;6189;52.526;13.390;2022-09-03T12:53:28;22.40;59.20
12254;DHT22;6189;52.526;13.390;2022-09-03T12:56:15;22.70;59.10
12254;DHT22;6189;52.526;13.390;2022-09-03T12:59:05;23.00;58.20
12254;DHT22;6189;52.526;13.390;2022-09-03T13:01:53;23.10;59.60
12254;DHT22;6189;52.526;13.390;2022-09-03T13:04:40;23.20;60.00
12254;DHT22;6189;52.526;13.390;2022-09-03T13:07:28;23.00;57.50
12254;DHT22;6189;52.526;13.390;2022-09-03T13:10:24;22.90;57.30
12254;DHT22;6189;52.526;13.390;2022-09-03T13:13:20;22.90;59.10
12254;DHT22;6189;52.526;13.390;2022-09-03T13:16:25;22.90;58.40
12254;DHT22;6189;52.526;13.390;2022-09-03T13:19:21;22.70;58.10
12254;DHT22;6189;52.526;13.390;2022-09-03T13:22:15;22.60;58.80
12254;DHT22;6189;52.526;13.390;2022-09-03T13:25:12;22.60;58.20
12254;DHT22;6189;52.526;13.390;2022-09-03T13:28:06;22.60;58.20
12254;DHT22;6189;52.526;13.390;2022-09-03T13:30:58;22.60;59.20
12254;DHT22;6189;52.526;13.390;2022-09-03T13:33:49;22.80;59.00
12254;DHT22;6189;52.526;13.390;2022-09-03T13:36:41;22.70;57.20
12254;DHT22;6189;52.526;13.390;2022-09-03T13:39:31;22.70;58.80
12254;DHT22;6189;52.526;13.390;2022-09-03T13:42:24;22.70;58.70
12254;DHT22;6189;52.526;13.390;2022-09-03T13:45:20;22.60;57.40
12254;DHT22;6189;52.526;13.390;2022-09-03T13:48:10;22.80;57.90
12254;DHT22;6189;52.526;13.390;2022-09-03T13:51:19;22.90;57.90
12254;DHT22;6189;52.526;13.390;2022-09-03T13:54:12;23.00;58.90
12254;DHT22;6189;52.526;13.390;2022-09-03T13:57:01;23.10;58.30
12254;DHT22;6189;52.526;13.390;2022-09-03T13:59:50;23.10;58.00
12254;DHT22;6189;52.526;13.390;2022-09-03T14:02:49;23.00;57.10
12254;DHT22;6189;52.526;13.390;2022-09-03T14:05:46;22.90;57.30
12254;DHT22;6189;52.526;13.390;2022-09-03T14:08:41;22.80;57.90
12254;DHT22;6189;52.526;13.390;2022-09-03T14:11:45;22.70;57.60
12254;DHT22;6189;52.526;13.390;2022-09-03T14:14:40;22.50;57.90
12254;DHT22;6189;52.526;13.390;2022-09-03T14:17:36;22.50;58.10
12254;DHT22;6189;52.526;13.390;2022-09-03T14:20:28;22.60;58.40
12254;DHT22;6189;52.526;13.390;2022-09-03T14:23:26;22.60;58.40
12254;DHT22;6189;52.526;13.390;2022-09-03T14:26:17;22.50;58.10
12254;DHT22;6189;52.526;13.390;2022-09-03T14:29:14;22.50;58.20
12254;DHT22;6189;52.526;13.390;2022-09-03T14:32:12;22.50;58.60
12254;DHT22;6189;52.526;13.390;2022-09-03T14:35:14;22.50;59.30
12254;DHT22;6189;52.526;13.390;2022-09-03T14:38:19;22.50;58.80
12254;DHT22;6189;52.526;13.390;2022-09-03T14:41:21;22.40;58.30
12254;DHT22;6189;52.526;13.390;2022-09-03T14:44:38;22.40;59.20
12254;DHT22;6189;52.526;13.390;2022-09-03T14:47:37;22.40;58.90
12254;DHT22;6189;52.526;13.390;2022-09-03T14:50:37;22.40;59.80
12254;DHT22;6189;52.526;13.390;2022-09-03T14:53:48;22.40;59.60
12254;DHT22;6189;52.526;13.390;2022-09-03T14:56:47;22.50;58.00
12254;DHT22;6189;52.526;13.390;2022-09-03T14:59:52;22.50;58.70
12254;DHT22;6189;52.526;13.390;2022-09-03T15:06:06;22.50;58.50
12254;DHT22;6189;52.526;13.390;2022-09-03T15:09:10;22.50;59.00
12254;DHT22;6189;52.526;13.390;2022-09-03T15:12:02;22.50;58.60
12254;DHT22;6189;52.526;13.390;2022-09-03T15:14:53;22.40;57.90
12254;DHT22;6189;52.526;13.390;2022-09-03T15:17:46;22.40;59.40
12254;DHT22;6189;52.526;13.390;2022-09-03T15:20:40;22.30;58.60
12254;DHT22;6189;52.526;13.390;2022-09-03T15:23:43;22.30;58.60
12254;DHT22;6189;52.526;13.390;2022-09-03T15:26:54;22.30;58.60
12254;DHT22;6189;52.526;13.390;2022-09-03T15:29:48;22.30;58.90
12254;DHT22;6189;52.526;13.390;2022-09-03T15:32:50;22.20;58.90
12254;DHT22;6189;52.526;13.390;2022-09-03T15:36:02;22.20;58.60
12254;DHT22;6189;52.526;13.390;2022-09-03T15:38:54;22.20;58.90
12254;DHT22;6189;52.526;13.390;2022-09-03T15:41:49;22.20;59.30
12254;DHT22;6189;52.526;13.390;2022-09-03T15:44:39;22.20;58.60
12254;DHT22;6189;52.526;13.390;2022-09-03T15:47:36;22.10;58.20
12254;DHT22;6189;52.526;13.390;2022-09-03T15:50:33;22.00;58.50
12254;DHT22;6189;52.526;13.390;2022-09-03T15:53:29;22.10;58.60
12254;DHT22;6189;52.526;13.390;2022-09-03T15:56:24;22.10;58.70
12254;DHT22;6189;52.526;13.390;2022-09-03T15:59:17;22.10;58.80
12254;DHT22;6189;52.526;13.390;2022-09-03T16:02:06;22.10;59.00
12254;DHT22;6189;52.526;13.390;2022-09-03T16:05:04;22.10;59.40
12254;DHT22;6189;52.526;13.390;2022-09-03T16:08:04;22.10;59.60
12254;DHT22;6189;52.526;13.390;2022-09-03T16:10:57;22.20;59.60
12254;DHT22;6189;52.526;13.390;2022-09-03T16:13:53;22.20;59.00
12254;DHT22;6189;52.526;13.390;2022-09-03T16:16:53;22.10;59.20
12254;DHT22;6189;52.526;13.390;2022-09-03T16:19:46;22.10;58.90
12254;DHT22;6189;52.526;13.390;2022-09-03T16:22:42;22.00;59.00
12254;DHT22;6189;52.526;13.390;2022-09-03T16:25:33;22.00;59.20
12254;DHT22;6189;52.526;13.390;2022-09-03T16:28:27;22.00;60.00
12254;DHT22;6189;52.526;13.390;2022-09-03T16:31:23;22.10;59.80
12254;DHT22;6189;52.526;13.390;2022-09-03T16:34:21;22.00;59.30
12254;DHT22;6189;52.526;13.390;2022-09-03T16:37:19;22.00;59.50
12254;DHT22;6189;52.526;13.390;2022-09-03T16:40:13;21.90;59.90
12254;DHT22;6189;52.526;13.390;2022-09-03T16:43:03;21.90;61.20
12254;DHT22;6189;52.526;13.390;2022-09-03T16:46:00;21.90;62.50
12254;DHT22;6189;52.526;13.390;2022-09-03T16:48:56;21.90;60.40
12254;DHT22;6189;52.526;13.390;2022-09-03T16:51:51;21.90;60.10
12254;DHT22;6189;52.526;13.390;2022-09-03T16:54:51;21.80;60.90
12254;DHT22;6189;52.526;13.390;2022-09-03T16:57:54;21.80;61.60
12254;DHT22;6189;52.526;13.390;2022-09-03T17:00:50;21.90;61.70
12254;DHT22;6189;52.526;13.390;2022-09-03T17:03:52;21.80;60.60
12254;DHT22;6189;52.526;13.390;2022-09-03T17:07:05;21.80;61.10
12254;DHT22;6189;52.526;13.390;2022-09-03T17:10:05;21.70;61.50
12254;DHT22;6189;52.526;13.390;2022-09-03T17:13:04;21.70;60.80
12254;DHT22;6189;52.526;13.390;2022-09-03T17:15:55;21.70;61.90
12254;DHT22;6189;52.526;13.390;2022-09-03T17:18:49;21.60;62.60
12254;DHT22;6189;52.526;13.390;2022-09-03T17:21:41;21.60;61.80
12254;DHT22;6189;52.526;13.390;2022-09-03T17:24:36;21.60;62.20
12254;DHT22;6189;52.526;13.390;2022-09-03T17:27:40;21.70;61.80
12254;DHT22;6189;52.526;13.390;2022-09-03T17:30:37;21.70;62.50
12254;DHT22;6189;52.526;13.390;2022-09-03T17:33:55;21.70;62.20
12254;DHT22;6189;52.526;13.390;2022-09-03T17:36:56;21.60;63.00
12254;DHT22;6189;52.526;13.390;2022-09-03T17:39:53;21.60;61.90
12254;DHT22;6189;52.526;13.390;2022-09-03T17:42:50;21.40;62.30
12254;DHT22;6189;52.526;13.390;2022-09-03T17:45:46;21.40;64.20
12254;DHT22;6189;52.526;13.390;2022-09-03T17:48:48;21.40;63.60
12254;DHT22;6189;52.526;13.390;2022-09-03T17:51:40;21.40;64.20
12254;DHT22;6189;52.526;13.390;2022-09-03T17:54:37;21.40;63.20
12254;DHT22;6189;52.526;13.390;2022-09-03T17:57:27;21.40;63.10
12254;DHT22;6189;52.526;13.390;2022-09-03T18:00:22;21.30;63.50
12254;DHT22;6189;52.526;13.390;2022-09-03T18:03:15;21.30;63.80
12254;DHT22;6189;52.526;13.390;2022-09-03T18:06:05;21.30;63.60
12254;DHT22;6189;52.526;13.390;2022-09-03T18:08:57;21.20;64.00
12254;DHT22;6189;52.526;13.390;2022-09-03T18:11:47;21.10;64.00
12254;DHT22;6189;52.526;13.390;2022-09-03T18:14:41;21.10;63.90